Las Vegas, NM

10:20 MDT le 29 août 2014 (GMT -0600)
Las Vegas Municipal | Change Station
CLOSE
Current Station
Aéroport
Location: Las Vegas,
Altitude: 6877 ft
Stations météo à proximité

Alt. 6877 ft 35.65 °N, 105.14 °W | Updated 27 minutes ago

Clear
Ciel dégagé
69 ° F
Paraît 69 ° F
N
8
Vent Variable Vent de SSE

Aujourd'hui
Haut(e) -- | Bas -- ° F
--% Risque de précip.
Hier
Haut(e) -- | Bas -- ° F
Precip. -- pouce
6:30 AM 7:31 PM
Lune montante, 15% visible
Pression 29.98 pouce
Visibilité 10.0 Miles terrestres
Nuages Ciel dégagé
Point de rosée 40 ° F
Humidité 35%
Précipitations 0.00 pouce
Profondeur de la couche neigeuse Non disponible.
UV 6 sur 12
Pollen 8.30 sur 12
Qualité de l'air Non disponible.
Flu Activity Non disponible.
METAR KLVS 291553Z AUTO 15007KT 10SM CLR 21/04 A3027 RMK AO2 SLP151 T02060044

More Conditions Fewer Conditions

Pression 29.98 pouce
Visibilité 10.0 Miles terrestres
Nuages Ciel dégagé
Point de rosée 40 ° F
Humidité 35%
Précipitations 0.00 pouce
Profondeur de la couche neigeuse Non disponible.
UV 6 sur 12
Pollen 8.30 sur 12
Qualité de l'air Non disponible.
Flu Activity Non disponible.
METAR KLVS 291553Z AUTO 15007KT 10SM CLR 21/04 A3027 RMK AO2 SLP151 T02060044

More Conditions Fewer Conditions

10-Day Weather Forecast

Almanac

Astronomie

Aug. 29, 2014 Lever Coucher
Temps réel 06:30 MDT 19:31 MDT
Crépuscule civil 06:04 MDT 19:58 MDT
Crépuscule nautique 05:33 MDT 20:29 MDT
Crépuscule astronomique 05:00 MDT 21:01 MDT
Lune 10:13 MDT 21:40 MDT
Durée de lumière visible 13h 53m
Longueur du jour
13h 01m
Tomorrow will be 2m 9s shorter.
Lune montante, 15% of the Moon is Illuminated
Aujourd'hui
Lune montante
Sep 2
Premier quartier
Sep 8
Pleine lune
Sep 15
Dernier quartier
Sep 24
Nouveau

Extrêmes aujourd'hui

State Highs State Lows

Community

WunderPhotos

Upload Photos

1,748,281 Photos téléchargées !

Nearby

Épaisseur de neige

Station Depth Altitude
Wesner Springs 1 in 11120 ft
Gallegos Peak 1 in 9800 ft
Quemazon 2 in 9500 ft
Bateman 0 in 9300 ft
North Costilla 1 in 10600 ft

Activité sismique

Ville Distance Mag. Time & Date
No recent earthquake activity has been reported nearby.
Minimum magnitude displayed is 2.5.

Températures des eaux côtières

Lieu Température
Aucun rapport de station

Stations météo à proximité